Historyczne dane pomiarowe

Dodano dane terminowe – wersja testowa.

Dane z okresu 1951-2019

Wersja bazy: 1.34 [2019-03-16, lista zmian], aktualizacja planowana na 2019-04-15

Dane meteo z obszaru Polski uzyskane na podstawie danych udostępnionych przez Instytut Meteorologii i Gospodarki Wodnej – Państwowy Instytut Badawczy.

 

Wybierz Datę:    

       

TemperaturaWilgotnośćWiatrCiśnienieOpadyŚniegCzas trwania zjawisk
 Stacja t tx tn tng RH VA  wxwx mslp ppp RRR   cm mm wxwxwxwxwxwxwx
1983-08-14 13.0 18.2 6.1 6.2 76.0- 2.7 2.7---- 0.0------------
1983-08-13 12.3 16.4 10.5 11.4 83.0- 5.0 4.3---- 0.0------------
1983-08-12 16.3 21.6 11.9 9.5 73.3- 5.0 3.7---- 9.4------------
1983-08-11 19.8 26.6 13.8 14.0 59.5- 1.7 1.0---- 0.0------------
1983-08-10 19.2 25.9 12.4 10.5 54.0- 1.7 2.0---- 0.0------------
1983-08-09 19.3 25.0 12.8 11.0 58.3- 1.3 1.7---- 0.0------------
1983-08-08 18.7 24.8 14.1 13.2 56.3- 1.0 2.7---- 0.0------------
1983-08-07 18.3 24.0 12.8 10.4 77.0- 1.3 3.0---- 0.0------------
1983-08-06 15.9 20.6 9.3 7.9 72.5- 1.7 1.0---- 0.0------------
1983-08-05 13.6 16.2 11.7 11.8 82.8- 5.7 1.0---- 0.7------------
1983-08-04 15.4 17.4 9.3 14.5 92.0- 7.7 1.0---- 1.8------------
1983-08-03 14.3 18.8 12.5 12.4 96.8- 8.0 4.3---- 31.6------------
1983-08-02 19.9 23.8 16.1 13.2 77.5- 6.0 1.7---- 1.9------------
1983-08-01 20.7 24.4 10.1 12.4 57.8- 5.3 1.7---- 0.0------------
1983-07-31 21.6 26.7 10.1 8.9 66.5- 1.7 1.3---- 0.0------------
1983-07-30 14.2 16.6 9.4 10.2 74.3- 8.0 3.0---- 0.0------------
1983-07-29 16.1 17.8 9.1 9.8 78.0- 3.0 1.3---- 0.0------------
1983-07-28 16.9 20.0 11.4 12.4 77.8- 0.3 1.7---- 0.0------------
1983-07-27 19.6 27.0 9.7 7.4 70.0- 3.3 1.0---- 0.0------------
1983-07-26 22.1 31.4 11.7 10.2 65.5- 0.3 2.3---- 0.0------------
1983-07-25 20.9 28.0 10.4 9.6 75.5- 1.0 2.7---- 0.0------------
1983-07-24 18.1 23.6 12.5 14.6 59.8- 5.3 3.0---- 0.0------------
1983-07-23 16.8 18.8 12.5 10.4 78.3- 4.7 2.7---- 0.4------------
1983-07-22 17.7 20.8 9.5 7.8 64.8- 2.7 2.7---- 0.0------------
1983-07-21 16.0 20.0 12.0 9.6 71.0- 3.7 4.7---- 3.6------------
1983-07-20 13.5 18.6 8.9 8.2 75.0- 3.0 1.7---- 0.0------------
1983-07-19 12.7 18.6 9.5 9.2 89.5- 4.7 1.3---- 0.0------------
1983-07-18 18.2 22.6 9.4 12.4 81.5- 7.3 2.7---- 3.3------------
1983-07-17 17.0 23.8 8.9 6.8 61.5- 2.0 1.0---- 0.0------------
1983-07-16 19.0 22.8 16.5 13.8 62.5- 3.7 3.7---- 0.0------------
1983-07-15 18.6 24.4 10.7 7.9 51.0- 0.7 2.3---- 0.0------------
1983-07-14 18.6 22.0 15.5 14.2 57.8- 1.0 5.0---- 0.0------------
1983-07-13 20.1 25.9 14.2 12.0 60.3- 0.7 3.0---- 0.0------------
1983-07-12 22.9 28.5 16.5 14.9 53.3- 3.3 3.7---- 0.0------------
1983-07-11 21.7 28.6 13.3 11.9 50.5- 4.0 3.0---- 0.0------------
1983-07-10 22.0 28.9 12.9 11.4 50.0- 1.0 1.7---- 0.0------------
1983-07-09 19.2 26.9 10.3 8.5 50.5- 1.7 1.7---- 0.0------------
1983-07-08 17.9 23.8 10.3 8.4 55.8- 0.0 1.7---- 0.0------------
1983-07-07 18.5 22.8 12.5 10.0 55.0- 0.0 2.7---- 0.0------------
1983-07-06 18.7 26.1 10.1 7.8 62.8- 1.0 1.3---- 0.0------------
1983-07-05 16.6 23.7 9.9 7.8 61.0- 1.3 1.7---- 0.0------------
1983-07-04 15.4 19.8 10.1 7.8 64.5- 3.0 3.0---- 0.0------------
1983-07-03 16.6 22.2 9.5 6.5 67.0- 3.0 1.7---- 0.0------------
1983-07-02 15.6 21.2 11.1 10.4 67.0- 3.0 1.7---- 0.0------------
1983-07-01 19.1 24.8 12.4 9.6 67.5- 5.0 1.7---- 0.7------------
1983-06-30 18.4 22.8 12.3 11.2 65.5- 4.0 2.3---- 0.0------------
1983-06-29 13.1 17.7 8.3 7.4 69.8- 7.0 2.3---- 0.0------------
1983-06-28 13.4 17.7 11.3 10.8 73.3- 5.7 3.0---- 0.2------------
1983-06-27 15.9 22.6 9.4 6.5 75.5- 7.7 2.3---- 1.2------------
1983-06-26 15.4 20.7 8.2 6.4 72.5- 3.7 3.0---- 0.0------------
1983-06-25 18.9 23.4 11.9 8.6 54.3- 2.3 2.3---- 0.0------------
1983-06-24 18.1 25.5 6.3 3.7 52.3- 0.0 2.0---- 0.0------------
1983-06-23 14.7 22.2 5.3 13.6 56.5- 0.0 1.0---- 0.0------------
1983-06-22 12.0 17.6 4.8 10.9 60.5- 0.0 2.7---- 0.0------------
1983-06-21 14.1 22.6 8.3 12.5 66.0- 0.7 3.0---- 0.0------------
1983-06-20 17.8 23.6 7.5 14.5 56.5- 0.3 1.7---- 0.0------------
1983-06-19 13.7 19.4 6.1 13.9 63.0- 0.0 3.7---- 0.0------------
1983-06-18 12.5 18.2 9.3 13.0 84.8- 7.0 3.3---- 0.0------------
1983-06-17 13.4 17.6 9.3 14.5 77.5- 5.0 3.0---- 0.0------------
1983-06-16 12.3 15.8 9.9 11.7 69.3- 4.3 3.0---- 0.0------------
429.8 ms

 

Źródłem pochodzenia danych jest Instytut Meteorologii i Gospodarki Wodnej – Państwowy Instytut Badawczy. Dane Instytutu Meteorologii i Gospodarki Wodnej – Państwowego Instytutu Badawczego zostały przetworzone.

Dane źródłowe można odnaleźć na stronie https://dane.imgw.pl